createdAt,value
2022-08-28T00:00:51.831Z,0.00
2022-08-28T00:01:51.836Z,0.00
2022-08-28T00:02:51.923Z,0.00
2022-08-28T00:03:51.843Z,0.00
2022-08-28T00:04:51.938Z,0.00
2022-08-28T00:05:51.845Z,0.00
2022-08-28T00:06:51.849Z,0.00
2022-08-28T00:07:51.850Z,0.00
2022-08-28T00:08:51.848Z,0.00
2022-08-28T00:09:51.850Z,0.00
2022-08-28T00:10:51.853Z,0.00
2022-08-28T00:11:51.859Z,0.00
2022-08-28T00:12:51.861Z,0.00
2022-08-28T00:13:51.857Z,0.00
2022-08-28T00:14:51.866Z,0.00
2022-08-28T00:15:51.917Z,0.00
2022-08-28T00:16:51.869Z,0.00
2022-08-28T00:17:51.872Z,0.00
2022-08-28T00:18:51.874Z,0.00
2022-08-28T00:19:51.879Z,0.00
2022-08-28T00:20:51.902Z,0.00
2022-08-28T00:21:51.878Z,0.00
2022-08-28T00:22:51.883Z,0.00
2022-08-28T00:23:51.881Z,0.00
2022-08-28T00:24:51.884Z,0.00
2022-08-28T00:25:51.883Z,0.00
2022-08-28T00:26:51.888Z,0.00
2022-08-28T00:27:51.892Z,0.00
2022-08-28T00:28:51.890Z,0.00
2022-08-28T00:29:51.890Z,0.00
2022-08-28T00:30:51.956Z,0.00
2022-08-28T00:31:51.900Z,0.00
2022-08-28T00:32:51.903Z,0.00
2022-08-28T00:33:51.901Z,0.00
2022-08-28T00:34:51.907Z,0.00
2022-08-28T00:35:51.908Z,0.00
2022-08-28T00:36:51.909Z,0.00
2022-08-28T00:37:51.912Z,0.00
2022-08-28T00:38:51.917Z,0.00
2022-08-28T00:39:51.934Z,0.00
2022-08-28T00:40:52.022Z,0.00
2022-08-28T00:41:51.920Z,0.00
2022-08-28T00:42:51.919Z,0.00
2022-08-28T00:43:51.924Z,0.00
2022-08-28T00:44:51.931Z,0.00
2022-08-28T00:45:51.932Z,0.00
2022-08-28T00:46:51.975Z,0.00
2022-08-28T00:47:51.934Z,0.00
2022-08-28T00:48:51.930Z,0.00
2022-08-28T00:49:51.935Z,0.00
2022-08-28T00:50:51.941Z,0.00
2022-08-28T00:51:51.940Z,0.00
2022-08-28T00:52:51.940Z,0.00
2022-08-28T00:53:53.185Z,0.00
2022-08-28T00:54:58.470Z,0.00
2022-08-28T00:55:51.947Z,0.00
2022-08-28T00:56:51.950Z,0.00
2022-08-28T00:57:51.950Z,0.00
2022-08-28T00:58:51.960Z,0.00
2022-08-28T00:59:51.958Z,0.00
2022-08-28T01:00:51.959Z,0.00
2022-08-28T01:01:51.988Z,0.00
2022-08-28T01:02:51.998Z,0.00
2022-08-28T01:03:51.960Z,0.00
2022-08-28T01:04:51.965Z,0.00
2022-08-28T01:05:51.972Z,0.00
2022-08-28T01:06:51.968Z,0.00
2022-08-28T01:07:51.970Z,0.00
2022-08-28T01:08:51.974Z,0.00
2022-08-28T01:09:51.975Z,0.00
2022-08-28T01:10:51.983Z,0.00
2022-08-28T01:11:51.976Z,0.00
2022-08-28T01:12:51.981Z,0.00
2022-08-28T01:13:51.987Z,0.00
2022-08-28T01:14:51.986Z,0.00
2022-08-28T01:15:52.057Z,0.00
2022-08-28T01:16:51.989Z,0.00
2022-08-28T01:17:51.996Z,0.00
2022-08-28T01:18:51.995Z,0.00
2022-08-28T01:19:52.004Z,0.00
2022-08-28T01:20:52.001Z,0.00
2022-08-28T01:21:52.001Z,0.00
2022-08-28T01:22:52.001Z,0.00
2022-08-28T01:23:52.003Z,0.00
2022-08-28T01:24:52.011Z,0.00
2022-08-28T01:25:52.007Z,0.00
2022-08-28T01:26:52.008Z,0.00
2022-08-28T01:27:52.043Z,0.00
2022-08-28T01:28:52.019Z,0.00
2022-08-28T01:29:52.014Z,0.00
2022-08-28T01:30:52.061Z,0.00
2022-08-28T01:31:52.022Z,0.00
2022-08-28T01:32:52.022Z,0.00
2022-08-28T01:33:52.025Z,0.00
2022-08-28T01:34:52.026Z,0.00
2022-08-28T01:35:52.028Z,0.00
2022-08-28T01:36:52.032Z,0.00
2022-08-28T01:37:52.031Z,0.00
2022-08-28T01:38:52.032Z,0.00
2022-08-28T01:39:52.188Z,0.00
2022-08-28T01:40:52.038Z,0.00
2022-08-28T01:41:52.041Z,0.00
2022-08-28T01:42:52.043Z,0.00
2022-08-28T01:43:52.046Z,0.00
2022-08-28T01:44:52.045Z,0.00
2022-08-28T01:45:52.108Z,0.00
2022-08-28T01:46:52.050Z,0.00
2022-08-28T01:47:52.054Z,0.00
2022-08-28T01:48:52.054Z,0.00
2022-08-28T01:49:52.052Z,0.00
2022-08-28T01:50:52.066Z,0.00
2022-08-28T01:51:52.404Z,0.00
2022-08-28T01:52:52.060Z,0.00
2022-08-28T01:53:52.064Z,0.00
2022-08-28T01:54:52.067Z,0.00
2022-08-28T01:55:52.069Z,0.00
2022-08-28T01:56:52.064Z,0.00
2022-08-28T01:57:52.071Z,0.00
2022-08-28T01:58:52.069Z,0.00
2022-08-28T01:59:52.072Z,0.00
2022-08-28T02:00:52.077Z,0.00
2022-08-28T02:01:52.145Z,0.00
2022-08-28T02:02:52.081Z,0.00
2022-08-28T02:03:52.108Z,0.00
2022-08-28T02:04:52.148Z,0.00
2022-08-28T02:05:52.089Z,0.00
2022-08-28T02:06:52.087Z,0.00
2022-08-28T02:07:52.095Z,0.00
2022-08-28T02:08:52.098Z,0.00
2022-08-28T02:09:52.091Z,0.00
2022-08-28T02:10:52.090Z,0.00
2022-08-28T02:11:52.095Z,0.00
2022-08-28T02:12:52.100Z,0.00
2022-08-28T02:13:52.099Z,0.00
2022-08-28T02:14:52.101Z,0.00
2022-08-28T02:15:52.205Z,0.00
2022-08-28T02:16:52.109Z,0.00
2022-08-28T02:17:52.106Z,0.00
2022-08-28T02:18:52.107Z,0.00
2022-08-28T02:19:52.110Z,0.00
2022-08-28T02:20:52.110Z,0.00
2022-08-28T02:21:52.119Z,0.00
2022-08-28T02:22:52.119Z,0.00
2022-08-28T02:23:52.124Z,0.00
2022-08-28T02:24:52.115Z,0.00
2022-08-28T02:25:52.125Z,0.00
2022-08-28T02:26:52.123Z,0.00
2022-08-28T02:27:52.125Z,0.00
2022-08-28T02:28:52.130Z,0.00
2022-08-28T02:29:52.126Z,0.00
2022-08-28T02:30:52.169Z,0.00
2022-08-28T02:31:52.132Z,0.00
2022-08-28T02:32:52.138Z,0.00
2022-08-28T02:33:52.138Z,0.00
2022-08-28T02:34:52.137Z,0.00
2022-08-28T02:35:52.139Z,0.00
2022-08-28T02:36:52.141Z,0.00
2022-08-28T02:37:52.145Z,0.00
2022-08-28T02:38:57.413Z,0.00
2022-08-28T02:39:52.193Z,0.00
2022-08-28T02:40:52.475Z,0.00
2022-08-28T02:41:52.151Z,0.00
2022-08-28T02:42:52.155Z,0.00
2022-08-28T02:43:52.151Z,0.00
2022-08-28T02:44:52.152Z,0.00
2022-08-28T02:45:52.212Z,0.00
2022-08-28T02:46:52.156Z,0.00
2022-08-28T02:47:52.162Z,0.00
2022-08-28T02:48:52.161Z,0.00
2022-08-28T02:49:52.176Z,0.00
2022-08-28T02:50:52.165Z,0.00
2022-08-28T02:51:52.165Z,0.00
2022-08-28T02:52:52.174Z,0.00
2022-08-28T02:53:52.174Z,0.00
2022-08-28T02:54:52.171Z,0.00
2022-08-28T02:55:52.174Z,0.00
2022-08-28T02:56:52.178Z,0.00
2022-08-28T02:57:52.178Z,0.00
2022-08-28T02:58:52.181Z,0.00
2022-08-28T02:59:52.186Z,0.00
2022-08-28T03:00:52.183Z,0.00
2022-08-28T03:01:52.264Z,0.00
2022-08-28T03:02:52.237Z,0.00
2022-08-28T03:03:52.188Z,0.00
2022-08-28T03:04:52.189Z,0.00
2022-08-28T03:05:52.194Z,0.00
2022-08-28T03:06:52.190Z,0.00
2022-08-28T03:07:52.195Z,0.00
2022-08-28T03:08:52.199Z,0.00
2022-08-28T03:09:52.198Z,0.00
2022-08-28T03:10:52.197Z,0.00
2022-08-28T03:11:52.203Z,0.00
2022-08-28T03:12:52.202Z,0.00
2022-08-28T03:13:52.206Z,0.00
2022-08-28T03:14:52.207Z,0.00
2022-08-28T03:15:52.212Z,0.00
2022-08-28T03:16:52.328Z,0.00
2022-08-28T03:17:52.215Z,0.00
2022-08-28T03:18:52.216Z,0.00
2022-08-28T03:19:52.216Z,0.00
2022-08-28T03:20:52.216Z,0.00
2022-08-28T03:21:52.892Z,0.00
2022-08-28T03:22:52.222Z,0.00
2022-08-28T03:23:52.220Z,0.00
2022-08-28T03:24:52.223Z,0.00
2022-08-28T03:25:52.223Z,0.00
2022-08-28T03:26:52.227Z,0.00
2022-08-28T03:27:52.233Z,0.00
2022-08-28T03:28:52.229Z,0.00
2022-08-28T03:29:52.233Z,0.00
2022-08-28T03:30:52.316Z,0.00
2022-08-28T03:31:52.237Z,0.00
2022-08-28T03:32:52.236Z,0.00
2022-08-28T03:33:52.239Z,0.00
2022-08-28T03:34:52.239Z,0.00
2022-08-28T03:35:52.241Z,0.00
2022-08-28T03:36:52.249Z,0.00
2022-08-28T03:37:52.245Z,0.00
2022-08-28T03:38:52.242Z,0.00
2022-08-28T03:39:52.352Z,0.00
2022-08-28T03:40:52.246Z,0.00
2022-08-28T03:41:52.253Z,0.00
2022-08-28T03:42:53.166Z,4.00
2022-08-28T03:43:52.254Z,0.00
2022-08-28T03:44:52.262Z,0.00
2022-08-28T03:45:52.284Z,0.00
2022-08-28T03:46:52.263Z,0.00
2022-08-28T03:47:52.260Z,0.00
2022-08-28T03:48:52.265Z,4.00
2022-08-28T03:49:52.269Z,4.00
2022-08-28T03:50:52.260Z,4.00
2022-08-28T03:51:52.271Z,0.00
2022-08-28T03:52:52.274Z,4.00
2022-08-28T03:53:52.272Z,4.00
2022-08-28T03:54:52.276Z,4.00
2022-08-28T03:55:52.279Z,8.00
2022-08-28T03:56:52.279Z,8.00
2022-08-28T03:57:52.280Z,8.00
2022-08-28T03:58:52.280Z,4.00
2022-08-28T03:59:52.285Z,8.00
2022-08-28T04:00:52.283Z,8.00
2022-08-28T04:01:52.347Z,8.00
2022-08-28T04:02:52.310Z,8.00
2022-08-28T04:03:52.297Z,12.00
2022-08-28T04:04:52.284Z,8.00
2022-08-28T04:05:52.289Z,12.00
2022-08-28T04:06:52.297Z,12.00
2022-08-28T04:07:52.297Z,16.00
2022-08-28T04:08:52.323Z,20.00
2022-08-28T04:09:52.299Z,20.00
2022-08-28T04:10:52.300Z,20.00
2022-08-28T04:11:52.309Z,24.00
2022-08-28T04:12:52.302Z,24.00
2022-08-28T04:13:52.311Z,28.00
2022-08-28T04:14:52.308Z,28.00
2022-08-28T04:15:52.311Z,32.00
2022-08-28T04:16:52.362Z,36.00
2022-08-28T04:17:52.318Z,36.00
2022-08-28T04:18:52.311Z,44.00
2022-08-28T04:19:52.327Z,52.00
2022-08-28T04:20:52.317Z,56.00
2022-08-28T04:21:52.327Z,60.00
2022-08-28T04:22:55.040Z,56.00
2022-08-28T04:23:52.321Z,56.00
2022-08-28T04:24:52.324Z,64.00
2022-08-28T04:25:52.331Z,72.00
2022-08-28T04:26:52.329Z,80.00
2022-08-28T04:27:52.330Z,84.00
2022-08-28T04:28:52.758Z,88.00
2022-08-28T04:29:52.333Z,92.00
2022-08-28T04:30:52.336Z,92.00
2022-08-28T04:31:52.420Z,92.00
2022-08-28T04:32:52.335Z,88.00
2022-08-28T04:33:52.340Z,88.00
2022-08-28T04:34:52.346Z,96.00
2022-08-28T04:35:52.346Z,100.00
2022-08-28T04:36:52.344Z,108.00
2022-08-28T04:37:52.346Z,112.00
2022-08-28T04:38:52.348Z,120.00
2022-08-28T04:39:52.399Z,120.00
2022-08-28T04:40:52.354Z,132.00
2022-08-28T04:41:52.350Z,140.00
2022-08-28T04:42:52.355Z,152.00
2022-08-28T04:43:52.357Z,160.00
2022-08-28T04:44:52.354Z,164.00
2022-08-28T04:45:52.477Z,172.00
2022-08-28T04:46:52.364Z,180.00
2022-08-28T04:47:52.365Z,172.00
2022-08-28T04:48:52.369Z,188.00
2022-08-28T04:49:52.368Z,208.00
2022-08-28T04:50:52.363Z,220.00
2022-08-28T04:51:52.368Z,240.00
2022-08-28T04:52:52.392Z,236.00
2022-08-28T04:53:52.371Z,248.00
2022-08-28T04:54:52.372Z,260.00
2022-08-28T04:55:55.048Z,276.00
2022-08-28T04:56:52.376Z,288.00
2022-08-28T04:57:52.376Z,296.00
2022-08-28T04:58:52.380Z,312.00
2022-08-28T04:59:52.383Z,336.00
2022-08-28T05:00:52.458Z,364.00
2022-08-28T05:01:52.427Z,404.00
2022-08-28T05:02:52.387Z,440.00
2022-08-28T05:03:52.385Z,492.00
2022-08-28T05:04:52.391Z,528.00
2022-08-28T05:05:52.395Z,588.00
2022-08-28T05:06:52.398Z,660.00
2022-08-28T05:07:52.396Z,704.00
2022-08-28T05:08:52.394Z,736.00
2022-08-28T05:09:52.402Z,784.00
2022-08-28T05:10:52.399Z,760.00
2022-08-28T05:11:52.402Z,880.00
2022-08-28T05:12:52.407Z,924.00
2022-08-28T05:13:52.403Z,936.00
2022-08-28T05:14:52.406Z,960.00
2022-08-28T05:15:52.550Z,996.00
2022-08-28T05:16:52.405Z,1012.00
2022-08-28T05:17:52.412Z,1024.00
2022-08-28T05:18:52.408Z,976.00
2022-08-28T05:19:52.412Z,960.00
2022-08-28T05:20:52.419Z,1000.00
2022-08-28T05:21:52.426Z,1048.00
2022-08-28T05:22:52.416Z,1108.00
2022-08-28T05:23:52.419Z,1176.00
2022-08-28T05:24:52.422Z,1276.00
2022-08-28T05:25:52.424Z,1388.00
2022-08-28T05:26:52.431Z,1492.00
2022-08-28T05:27:52.430Z,1536.00
2022-08-28T05:28:52.424Z,1484.00
2022-08-28T05:29:52.432Z,1440.00
2022-08-28T05:30:52.431Z,1412.00
2022-08-28T05:31:52.471Z,1396.00
2022-08-28T05:32:52.435Z,1388.00
2022-08-28T05:33:52.434Z,1400.00
2022-08-28T05:34:52.439Z,1524.00
2022-08-28T05:35:52.440Z,1644.00
2022-08-28T05:36:52.441Z,1740.00
2022-08-28T05:37:52.441Z,1788.00
2022-08-28T05:38:53.309Z,1840.00
2022-08-28T05:39:52.498Z,1908.00
2022-08-28T05:40:52.444Z,1892.00
2022-08-28T05:41:52.452Z,1852.00
2022-08-28T05:42:52.445Z,1792.00
2022-08-28T05:43:52.453Z,1712.00
2022-08-28T05:44:54.768Z,1648.00
2022-08-28T05:45:52.509Z,1644.00
2022-08-28T05:46:52.458Z,1652.00
2022-08-28T05:47:52.456Z,1684.00
2022-08-28T05:48:52.458Z,1704.00
2022-08-28T05:49:52.460Z,1680.00
2022-08-28T05:50:52.464Z,1660.00
2022-08-28T05:51:52.472Z,1664.00
2022-08-28T05:52:52.468Z,1688.00
2022-08-28T05:53:52.469Z,1712.00
2022-08-28T05:54:52.469Z,1728.00
2022-08-28T05:55:52.475Z,1772.00
2022-08-28T05:56:52.472Z,1872.00
2022-08-28T05:57:52.475Z,2032.00
2022-08-28T05:58:52.479Z,2156.00
2022-08-28T05:59:52.481Z,2200.00
2022-08-28T06:00:52.479Z,2240.00
2022-08-28T06:01:52.506Z,2332.00
2022-08-28T06:02:52.485Z,2516.00
2022-08-28T06:03:52.541Z,2604.00
2022-08-28T06:04:52.489Z,2560.00
2022-08-28T06:05:52.485Z,2480.00
2022-08-28T06:06:52.495Z,2420.00
2022-08-28T06:07:52.494Z,2476.00
2022-08-28T06:08:56.328Z,2564.00
2022-08-28T06:09:52.496Z,2620.00
2022-08-28T06:10:52.496Z,2636.00
2022-08-28T06:11:52.601Z,2668.00
2022-08-28T06:12:52.502Z,2768.00
2022-08-28T06:13:52.502Z,2848.00
2022-08-28T06:14:52.503Z,2884.00
2022-08-28T06:15:52.526Z,2916.00
2022-08-28T06:16:52.593Z,2876.00
2022-08-28T06:17:52.508Z,2916.00
2022-08-28T06:18:52.516Z,2884.00
2022-08-28T06:19:52.515Z,2884.00
2022-08-28T06:20:52.512Z,2864.00
2022-08-28T06:21:52.530Z,2984.00
2022-08-28T06:22:52.519Z,3144.00
2022-08-28T06:23:52.522Z,3320.00
2022-08-28T06:24:52.531Z,3396.00
2022-08-28T06:25:52.524Z,3512.00
2022-08-28T06:26:52.530Z,3520.00
2022-08-28T06:27:52.528Z,3452.00
2022-08-28T06:28:52.531Z,3428.00
2022-08-28T06:29:52.529Z,3356.00
2022-08-28T06:31:18.587Z,3440.00
2022-08-28T06:31:52.687Z,3428.00
2022-08-28T06:32:52.535Z,3528.00
2022-08-28T06:33:52.541Z,3600.00
2022-08-28T06:34:52.547Z,3036.00
2022-08-28T06:35:52.578Z,3272.00
2022-08-28T06:36:54.140Z,3456.00
2022-08-28T06:37:52.540Z,3436.00
2022-08-28T06:38:52.552Z,3172.00
2022-08-28T06:39:52.578Z,3252.00
2022-08-28T06:40:52.552Z,3180.00
2022-08-28T06:41:52.550Z,2988.00
2022-08-28T06:42:52.557Z,3136.00
2022-08-28T06:43:52.561Z,3216.00
2022-08-28T06:44:52.555Z,3320.00
2022-08-28T06:45:52.651Z,2992.00
2022-08-28T06:46:52.605Z,3052.00
2022-08-28T06:47:52.565Z,3344.00
2022-08-28T06:48:52.569Z,3796.00
2022-08-28T06:49:52.566Z,4392.00
2022-08-28T06:50:52.574Z,5092.00
2022-08-28T06:51:52.570Z,5840.00
2022-08-28T06:52:52.573Z,6280.00
2022-08-28T06:53:52.581Z,6720.00
2022-08-28T06:54:55.950Z,7296.00
2022-08-28T06:55:52.579Z,7436.00
2022-08-28T06:56:52.579Z,7688.00
2022-08-28T06:57:52.657Z,7512.00
2022-08-28T06:58:52.584Z,7060.00
2022-08-28T06:59:52.586Z,5708.00
2022-08-28T07:01:00.889Z,5652.00
2022-08-28T07:01:52.780Z,5312.00
2022-08-28T07:02:52.648Z,5028.00
2022-08-28T07:03:52.592Z,5320.00
2022-08-28T07:04:52.594Z,5868.00
2022-08-28T07:05:52.603Z,8388.00
2022-08-28T07:06:54.652Z,7764.00
2022-08-28T07:07:52.600Z,7732.00
2022-08-28T07:08:52.610Z,8084.00
2022-08-28T07:09:52.605Z,10348.00
2022-08-28T07:10:52.608Z,9680.00
2022-08-28T07:11:52.617Z,12388.00
2022-08-28T07:12:52.615Z,10280.00
2022-08-28T07:13:52.618Z,10256.00
2022-08-28T07:14:52.619Z,11808.00
2022-08-28T07:15:52.766Z,12092.00
2022-08-28T07:16:52.622Z,9820.00
2022-08-28T07:17:52.630Z,10060.00
2022-08-28T07:18:52.632Z,11216.00
2022-08-28T07:19:52.630Z,11768.00
2022-08-28T07:20:52.638Z,11884.00
2022-08-28T07:21:52.631Z,11832.00
2022-08-28T07:22:54.139Z,10468.00
2022-08-28T07:23:52.639Z,6776.00
2022-08-28T07:24:52.648Z,8168.00
2022-08-28T07:25:52.646Z,8932.00
2022-08-28T07:26:52.647Z,7556.00
2022-08-28T07:27:52.649Z,9068.00
2022-08-28T07:28:52.658Z,10340.00
2022-08-28T07:29:52.661Z,14248.00
2022-08-28T07:30:52.692Z,16352.00
2022-08-28T07:31:52.662Z,27520.00
2022-08-28T07:32:52.673Z,38976.00
2022-08-28T07:33:53.877Z,41536.00
2022-08-28T07:34:52.674Z,42048.00
2022-08-28T07:35:52.682Z,46848.00
2022-08-28T07:36:52.686Z,43936.00
2022-08-28T07:37:52.687Z,51264.00
2022-08-28T07:38:52.692Z,24320.00
2022-08-28T07:39:52.763Z,14596.00
2022-08-28T07:40:52.698Z,16440.00
2022-08-28T07:41:52.697Z,12928.00
2022-08-28T07:42:52.709Z,12860.00
2022-08-28T07:43:52.712Z,47648.00
2022-08-28T07:44:52.716Z,34048.00
2022-08-28T07:45:52.772Z,12396.00
2022-08-28T07:46:52.730Z,31008.00
2022-08-28T07:47:52.729Z,17096.00
2022-08-28T07:48:52.734Z,30912.00
2022-08-28T07:49:52.742Z,17888.00
2022-08-28T07:50:52.750Z,49536.00
2022-08-28T07:51:53.918Z,19936.00
2022-08-28T07:52:52.763Z,19744.00
2022-08-28T07:53:52.764Z,27552.00
2022-08-28T07:54:52.778Z,16948.00
2022-08-28T07:55:52.774Z,43680.00
2022-08-28T07:56:52.783Z,16352.00
2022-08-28T07:57:52.790Z,38304.00
2022-08-28T07:58:52.789Z,42848.00
2022-08-28T07:59:52.797Z,54624.00
2022-08-28T08:00:52.804Z,54464.00
2022-08-28T08:01:52.867Z,50016.00
2022-08-28T08:02:52.813Z,51712.00
2022-08-28T08:03:55.941Z,54432.00
2022-08-28T08:04:52.827Z,51136.00
2022-08-28T08:05:52.830Z,48608.00
2022-08-28T08:06:57.185Z,56992.00
2022-08-28T08:07:52.847Z,62560.00
2022-08-28T08:08:52.858Z,56544.00
2022-08-28T08:09:52.870Z,57312.00
2022-08-28T08:10:52.874Z,52288.00
2022-08-28T08:11:52.886Z,18880.00
2022-08-28T08:12:52.892Z,17760.00
2022-08-28T08:13:52.893Z,56256.00
2022-08-28T08:14:52.911Z,63936.00
2022-08-28T08:15:52.997Z,55680.00
2022-08-28T08:16:52.926Z,54336.00
2022-08-28T08:17:52.931Z,59424.00
2022-08-28T08:18:52.937Z,47680.00
2022-08-28T08:19:52.946Z,19040.00
2022-08-28T08:20:52.956Z,15264.00
2022-08-28T08:21:54.652Z,58240.00
2022-08-28T08:22:52.975Z,28000.00
2022-08-28T08:23:52.988Z,58720.00
2022-08-28T08:24:52.996Z,15500.00
2022-08-28T08:25:53.000Z,55072.00
2022-08-28T08:26:59.878Z,30656.00
2022-08-28T08:27:53.027Z,21408.00
2022-08-28T08:28:53.033Z,37216.00
2022-08-28T08:29:53.064Z,25344.00
2022-08-28T08:30:53.086Z,71936.00
2022-08-28T08:31:53.073Z,61056.00
2022-08-28T08:32:53.077Z,50464.00
2022-08-28T08:33:53.086Z,63520.00
2022-08-28T08:34:53.099Z,31872.00
2022-08-28T08:35:53.107Z,57984.00
2022-08-28T08:36:53.116Z,57024.00
2022-08-28T08:37:53.128Z,65792.00
2022-08-28T08:38:59.248Z,59008.00
2022-08-28T08:39:53.197Z,60096.00
2022-08-28T08:40:53.162Z,24352.00
2022-08-28T08:41:53.172Z,76736.00
2022-08-28T08:42:53.188Z,62112.00
2022-08-28T08:43:53.195Z,62272.00
2022-08-28T08:44:53.211Z,28704.00
2022-08-28T08:45:53.241Z,14052.00
2022-08-28T08:46:53.231Z,10788.00
2022-08-28T08:47:53.247Z,11012.00
2022-08-28T08:48:53.255Z,11832.00
2022-08-28T08:49:53.270Z,9356.00
2022-08-28T08:50:53.281Z,8556.00
2022-08-28T08:51:53.290Z,8284.00
2022-08-28T08:52:53.308Z,14484.00
2022-08-28T08:53:53.322Z,15628.00
2022-08-28T08:54:56.438Z,30752.00
2022-08-28T08:55:53.334Z,34528.00
2022-08-28T08:56:53.347Z,31264.00
2022-08-28T08:57:53.356Z,18240.00
2022-08-28T08:58:53.372Z,21056.00
2022-08-28T08:59:53.386Z,18208.00
2022-08-28T09:00:53.392Z,41344.00
2022-08-28T09:01:53.504Z,40128.00
2022-08-28T09:02:53.412Z,26176.00
2022-08-28T09:03:53.845Z,19328.00
2022-08-28T09:04:53.441Z,27744.00
2022-08-28T09:05:53.444Z,16456.00
2022-08-28T09:06:53.462Z,17024.00
2022-08-28T09:07:53.472Z,57824.00
2022-08-28T09:08:53.479Z,17760.00
2022-08-28T09:09:53.486Z,31680.00
2022-08-28T09:10:53.504Z,17920.00
2022-08-28T09:11:56.387Z,18912.00
2022-08-28T09:12:53.527Z,15000.00
2022-08-28T09:13:53.531Z,18624.00
2022-08-28T09:14:53.546Z,19136.00
2022-08-28T09:15:53.580Z,12592.00
2022-08-28T09:16:53.573Z,17984.00
2022-08-28T09:17:53.578Z,13340.00
2022-08-28T09:18:53.587Z,13076.00
2022-08-28T09:19:53.598Z,15888.00
2022-08-28T09:20:53.607Z,18592.00
2022-08-28T09:21:53.621Z,12628.00
2022-08-28T09:22:53.632Z,11332.00
2022-08-28T09:23:53.641Z,12620.00
2022-08-28T09:24:53.657Z,13164.00
2022-08-28T09:25:53.665Z,19328.00
2022-08-28T09:26:53.673Z,16604.00
2022-08-28T09:27:53.683Z,16044.00
2022-08-28T09:28:53.688Z,18144.00
2022-08-28T09:29:53.702Z,13120.00
2022-08-28T09:30:53.746Z,12972.00
2022-08-28T09:31:53.721Z,15628.00
2022-08-28T09:32:53.732Z,15228.00
2022-08-28T09:33:53.735Z,12948.00
2022-08-28T09:34:53.754Z,12928.00
2022-08-28T09:35:53.757Z,16220.00
2022-08-28T09:36:53.766Z,48224.00
2022-08-28T09:37:53.773Z,20992.00
2022-08-28T09:38:53.786Z,19520.00
2022-08-28T09:39:53.859Z,23904.00
2022-08-28T09:40:53.805Z,20896.00
2022-08-28T09:41:53.818Z,20576.00
2022-08-28T09:42:53.824Z,46400.00
2022-08-28T09:43:53.832Z,31488.00
2022-08-28T09:44:53.841Z,33920.00
2022-08-28T09:45:53.936Z,27712.00
2022-08-28T09:46:53.862Z,29536.00
2022-08-28T09:47:53.869Z,46976.00
2022-08-28T09:48:53.878Z,31776.00
2022-08-28T09:49:53.898Z,31488.00
2022-08-28T09:50:53.901Z,19520.00
2022-08-28T09:51:53.913Z,19232.00
2022-08-28T09:52:53.917Z,19424.00
2022-08-28T09:53:53.930Z,16196.00
2022-08-28T09:54:53.939Z,20256.00
2022-08-28T09:55:53.949Z,19424.00
2022-08-28T09:56:53.958Z,23968.00
2022-08-28T09:57:53.971Z,18688.00
2022-08-28T09:58:53.981Z,16596.00
2022-08-28T09:59:53.987Z,30656.00
2022-08-28T10:00:53.998Z,26368.00
2022-08-28T10:01:54.095Z,15740.00
2022-08-28T10:02:54.028Z,21536.00
2022-08-28T10:03:54.064Z,27904.00
2022-08-28T10:04:54.040Z,60224.00
2022-08-28T10:05:54.047Z,25184.00
2022-08-28T10:06:54.057Z,21408.00
2022-08-28T10:07:54.909Z,22880.00
2022-08-28T10:08:54.078Z,27744.00
2022-08-28T10:09:54.087Z,18848.00
2022-08-28T10:10:54.099Z,18432.00
2022-08-28T10:11:54.106Z,16052.00
2022-08-28T10:12:54.117Z,18496.00
2022-08-28T10:13:54.129Z,20576.00
2022-08-28T10:14:54.138Z,20224.00
2022-08-28T10:15:54.173Z,16192.00
2022-08-28T10:16:54.159Z,19744.00
2022-08-28T10:17:54.173Z,25664.00
2022-08-28T10:18:54.182Z,22592.00
2022-08-28T10:19:54.187Z,20352.00
2022-08-28T10:20:54.200Z,19360.00
2022-08-28T10:21:54.216Z,76096.00
2022-08-28T10:22:54.218Z,36992.00
2022-08-28T10:23:54.282Z,25792.00
2022-08-28T10:24:54.245Z,22464.00
2022-08-28T10:25:54.250Z,22432.00
2022-08-28T10:26:54.260Z,35136.00
2022-08-28T10:27:54.269Z,19712.00
2022-08-28T10:28:54.289Z,20256.00
2022-08-28T10:29:54.287Z,19232.00
2022-08-28T10:30:54.370Z,16144.00
2022-08-28T10:31:54.314Z,20864.00
2022-08-28T10:32:54.325Z,16228.00
2022-08-28T10:33:54.336Z,14676.00
2022-08-28T10:34:54.353Z,13712.00
2022-08-28T10:35:54.354Z,11600.00
2022-08-28T10:36:54.367Z,12492.00
2022-08-28T10:37:54.374Z,11720.00
2022-08-28T10:38:54.387Z,11108.00
2022-08-28T10:39:54.485Z,11012.00
2022-08-28T10:40:54.403Z,14268.00
2022-08-28T10:41:54.417Z,12992.00
2022-08-28T10:42:54.426Z,11176.00
2022-08-28T10:43:54.440Z,10276.00
2022-08-28T10:44:54.445Z,10064.00
2022-08-28T10:45:54.519Z,9936.00
2022-08-28T10:46:54.462Z,9164.00
2022-08-28T10:47:54.478Z,7764.00
2022-08-28T10:48:54.480Z,7112.00
2022-08-28T10:49:54.493Z,6212.00
2022-08-28T10:50:54.497Z,6976.00
2022-08-28T10:51:54.508Z,7720.00
2022-08-28T10:52:54.521Z,11500.00
2022-08-28T10:53:54.526Z,14272.00
2022-08-28T10:54:54.531Z,15684.00
2022-08-28T10:55:54.544Z,13076.00
2022-08-28T10:56:56.115Z,12864.00
2022-08-28T10:57:54.559Z,18304.00
2022-08-28T10:58:54.567Z,19968.00
2022-08-28T10:59:54.574Z,32512.00
2022-08-28T11:00:54.629Z,20736.00
2022-08-28T11:01:54.649Z,18784.00
2022-08-28T11:02:54.634Z,28928.00
2022-08-28T11:03:54.614Z,19712.00
2022-08-28T11:04:58.318Z,16080.00
2022-08-28T11:05:54.630Z,11940.00
2022-08-28T11:06:54.635Z,8808.00
2022-08-28T11:07:54.647Z,8268.00
2022-08-28T11:08:54.654Z,9160.00
2022-08-28T11:09:54.662Z,9528.00
2022-08-28T11:10:54.664Z,9308.00
2022-08-28T11:11:58.429Z,16564.00
2022-08-28T11:12:54.687Z,40224.00
2022-08-28T11:13:54.696Z,60384.00
2022-08-28T11:14:54.701Z,54048.00
2022-08-28T11:15:54.710Z,73600.00
2022-08-28T11:16:54.816Z,35040.00
2022-08-28T11:17:54.721Z,37952.00
2022-08-28T11:18:54.735Z,64160.00
2022-08-28T11:19:54.749Z,47552.00
2022-08-28T11:20:54.756Z,35936.00
2022-08-28T11:21:54.763Z,43776.00
2022-08-28T11:22:54.775Z,25504.00
2022-08-28T11:23:54.782Z,15228.00
2022-08-28T11:24:59.152Z,14372.00
2022-08-28T11:25:54.802Z,13500.00
2022-08-28T11:26:54.810Z,12040.00
2022-08-28T11:27:54.817Z,10276.00
2022-08-28T11:28:54.830Z,10816.00
2022-08-28T11:29:54.845Z,10340.00
2022-08-28T11:30:54.880Z,13012.00
2022-08-28T11:31:54.859Z,13564.00
2022-08-28T11:32:54.864Z,11044.00
2022-08-28T11:33:54.879Z,8980.00
2022-08-28T11:34:54.889Z,8252.00
2022-08-28T11:35:54.903Z,9292.00
2022-08-28T11:36:54.906Z,9948.00
2022-08-28T11:37:54.916Z,10272.00
2022-08-28T11:38:54.920Z,14232.00
2022-08-28T11:39:54.949Z,11768.00
2022-08-28T11:40:54.947Z,8576.00
2022-08-28T11:41:54.950Z,17188.00
2022-08-28T11:42:54.958Z,14048.00
2022-08-28T11:43:54.973Z,24320.00
2022-08-28T11:44:54.982Z,22432.00
2022-08-28T11:45:55.091Z,28672.00
2022-08-28T11:46:54.994Z,57824.00
2022-08-28T11:47:55.009Z,50848.00
2022-08-28T11:48:55.012Z,26816.00
2022-08-28T11:49:55.020Z,27520.00
2022-08-28T11:50:55.031Z,33312.00
2022-08-28T11:51:55.037Z,20704.00
2022-08-28T11:52:55.047Z,18496.00
2022-08-28T11:53:55.060Z,16632.00
2022-08-28T11:54:55.071Z,17120.00
2022-08-28T11:55:55.078Z,14448.00
2022-08-28T11:56:55.087Z,13392.00
2022-08-28T11:57:55.092Z,13420.00
2022-08-28T11:58:55.103Z,12596.00
2022-08-28T11:59:55.119Z,9460.00
2022-08-28T12:00:55.121Z,9228.00
2022-08-28T12:01:55.131Z,9412.00
2022-08-28T12:02:55.209Z,11564.00
2022-08-28T12:03:55.230Z,9792.00
2022-08-28T12:04:55.158Z,8680.00
2022-08-28T12:05:55.167Z,9576.00
2022-08-28T12:06:55.246Z,10236.00
2022-08-28T12:07:55.193Z,12084.00
2022-08-28T12:08:55.191Z,16388.00
2022-08-28T12:09:55.200Z,18048.00
2022-08-28T12:10:55.214Z,16220.00
2022-08-28T12:11:55.218Z,13844.00
2022-08-28T12:12:55.226Z,12840.00
2022-08-28T12:13:55.236Z,11936.00
2022-08-28T12:14:55.242Z,9264.00
2022-08-28T12:15:55.309Z,12492.00
2022-08-28T12:16:55.261Z,15300.00
2022-08-28T12:17:55.275Z,18720.00
2022-08-28T12:18:55.279Z,18816.00
2022-08-28T12:19:56.300Z,17376.00
2022-08-28T12:20:55.296Z,15884.00
2022-08-28T12:21:55.307Z,14448.00
2022-08-28T12:22:55.313Z,11432.00